createdAt,value
2023-05-08T00:01:42.971Z,70.30
2023-05-08T00:04:10.188Z,70.10
2023-05-08T00:06:41.864Z,69.90
2023-05-08T00:09:08.895Z,70.40
2023-05-08T00:11:36.280Z,70.60
2023-05-08T00:14:03.328Z,71.10
2023-05-08T00:16:33.722Z,71.30
2023-05-08T00:19:00.939Z,70.90
2023-05-08T00:21:27.982Z,71.50
2023-05-08T00:23:55.026Z,72.00
2023-05-08T00:26:22.225Z,71.80
2023-05-08T00:28:49.503Z,71.70
2023-05-08T00:31:17.172Z,72.10
2023-05-08T00:33:45.769Z,72.40
2023-05-08T00:36:15.861Z,72.50
2023-05-08T00:38:43.101Z,72.60
2023-05-08T00:41:10.065Z,72.70
2023-05-08T00:43:37.840Z,72.40
2023-05-08T00:46:05.056Z,72.80
2023-05-08T00:48:34.143Z,73.10
2023-05-08T00:51:03.532Z,73.20
2023-05-08T00:53:31.156Z,73.20
2023-05-08T00:55:58.254Z,73.30
2023-05-08T00:58:26.110Z,73.20
2023-05-08T01:00:54.451Z,72.90
2023-05-08T01:03:21.577Z,73.70
2023-05-08T01:05:49.378Z,72.90
2023-05-08T01:08:16.493Z,73.30
2023-05-08T01:11:08.390Z,74.00
2023-05-08T01:13:51.083Z,73.80
2023-05-08T01:16:25.061Z,74.10
2023-05-08T01:19:33.858Z,74.40
2023-05-08T01:22:29.856Z,74.10
2023-05-08T01:25:09.517Z,74.00
2023-05-08T01:28:14.174Z,74.00
2023-05-08T01:31:06.827Z,74.20
2023-05-08T01:34:20.233Z,74.20
2023-05-08T01:37:01.091Z,75.00
2023-05-08T01:39:58.247Z,75.20
2023-05-08T01:42:45.954Z,75.10
2023-05-08T01:45:45.743Z,75.00
2023-05-08T01:48:17.659Z,74.90
2023-05-08T01:50:49.086Z,75.20
2023-05-08T01:53:24.929Z,74.80
2023-05-08T01:55:56.234Z,74.90
2023-05-08T01:58:23.551Z,74.70
2023-05-08T02:00:50.774Z,74.40
2023-05-08T02:03:17.953Z,74.20
2023-05-08T02:05:45.098Z,74.00
2023-05-08T02:08:13.064Z,73.90
2023-05-08T02:10:40.357Z,74.10
2023-05-08T02:13:07.788Z,74.10
2023-05-08T02:15:36.815Z,74.20
2023-05-08T02:18:07.739Z,74.30
2023-05-08T02:20:34.947Z,74.30
2023-05-08T02:23:02.021Z,74.20
2023-05-08T02:25:29.108Z,74.50
2023-05-08T02:27:56.190Z,74.50
2023-05-08T02:30:29.582Z,74.30
2023-05-08T02:32:59.674Z,74.10
2023-05-08T02:35:27.521Z,74.10
2023-05-08T02:37:55.586Z,74.30
2023-05-08T02:40:23.386Z,74.40
2023-05-08T02:42:50.618Z,74.40
2023-05-08T02:45:17.792Z,74.70
2023-05-08T02:48:16.134Z,75.10
2023-05-08T02:50:57.762Z,75.20
2023-05-08T02:53:36.275Z,75.20
2023-05-08T02:56:09.298Z,75.20
2023-05-08T02:58:46.344Z,75.10
2023-05-08T03:01:44.511Z,75.00
2023-05-08T03:04:12.121Z,75.10
2023-05-08T03:06:46.523Z,75.30
2023-05-08T03:09:17.466Z,75.50
2023-05-08T03:11:44.977Z,75.60
2023-05-08T03:14:13.161Z,75.40
2023-05-08T03:16:41.678Z,75.50
2023-05-08T03:19:15.281Z,75.70
2023-05-08T03:21:43.251Z,75.70
2023-05-08T03:24:10.263Z,75.50
2023-05-08T03:26:37.268Z,75.50
2023-05-08T03:29:04.560Z,75.70
2023-05-08T03:31:31.897Z,75.60
2023-05-08T03:33:58.988Z,75.50
2023-05-08T03:36:27.279Z,75.40
2023-05-08T03:38:54.266Z,75.30
2023-05-08T03:41:21.585Z,75.10
2023-05-08T03:43:48.673Z,75.20
2023-05-08T03:46:15.869Z,75.20
2023-05-08T03:48:42.931Z,75.20
2023-05-08T03:51:09.999Z,75.20
2023-05-08T03:53:37.887Z,75.00
2023-05-08T03:56:05.236Z,75.20
2023-05-08T03:59:00.222Z,75.20
2023-05-08T04:01:41.047Z,75.30
2023-05-08T04:04:35.549Z,75.20
2023-05-08T04:07:04.412Z,75.50
2023-05-08T04:09:53.729Z,75.60
2023-05-08T04:12:32.275Z,75.50
2023-05-08T04:15:04.544Z,75.40
2023-05-08T04:17:35.432Z,75.20
2023-05-08T04:20:04.798Z,75.20
2023-05-08T04:22:32.815Z,75.20
2023-05-08T04:25:01.695Z,75.00
2023-05-08T04:27:29.028Z,75.20
2023-05-08T04:29:56.590Z,75.00
2023-05-08T04:32:23.673Z,74.70
2023-05-08T04:34:50.755Z,74.60
2023-05-08T04:37:27.428Z,74.40
2023-05-08T04:39:54.502Z,74.00
2023-05-08T04:42:21.757Z,73.90
2023-05-08T04:44:48.812Z,73.60
2023-05-08T04:47:15.952Z,73.60
2023-05-08T04:49:43.027Z,73.10
2023-05-08T04:52:10.148Z,73.40
2023-05-08T04:54:37.198Z,73.20
2023-05-08T04:57:06.469Z,73.00
2023-05-08T04:59:33.471Z,72.70
2023-05-08T05:02:03.140Z,72.60
2023-05-08T05:04:30.582Z,72.90
2023-05-08T05:06:57.710Z,72.80
2023-05-08T05:09:25.956Z,72.60
2023-05-08T05:11:56.455Z,73.00
2023-05-08T05:14:25.065Z,73.40
2023-05-08T05:16:52.934Z,73.70
2023-05-08T05:19:20.542Z,73.40
2023-05-08T05:21:47.809Z,72.90
2023-05-08T05:24:15.239Z,72.80
2023-05-08T05:26:42.510Z,72.60
2023-05-08T05:29:09.781Z,72.80
2023-05-08T05:31:37.674Z,72.80
2023-05-08T05:34:05.223Z,72.80
2023-05-08T05:36:32.334Z,73.10
2023-05-08T05:38:59.518Z,73.20
2023-05-08T05:41:27.877Z,73.40
2023-05-08T05:43:54.919Z,73.70
2023-05-08T05:46:24.537Z,74.00
2023-05-08T05:48:52.273Z,74.50
2023-05-08T05:51:19.501Z,73.90
2023-05-08T05:53:46.801Z,73.30
2023-05-08T05:56:13.842Z,73.40
2023-05-08T05:58:44.872Z,73.70
2023-05-08T06:01:15.669Z,74.00
2023-05-08T06:03:45.753Z,74.40
2023-05-08T06:06:12.998Z,74.50
2023-05-08T06:08:41.752Z,74.50
2023-05-08T06:11:09.064Z,74.40
2023-05-08T06:13:36.340Z,74.50
2023-05-08T06:16:03.610Z,74.70
2023-05-08T06:18:30.783Z,75.00
2023-05-08T06:20:58.550Z,75.40
2023-05-08T06:23:26.171Z,76.00
2023-05-08T06:25:54.145Z,76.20
2023-05-08T06:28:22.724Z,76.40
2023-05-08T06:30:50.042Z,76.50
2023-05-08T06:33:17.375Z,76.40
2023-05-08T06:35:48.054Z,76.50
2023-05-08T06:38:15.087Z,76.70
2023-05-08T06:40:44.099Z,76.40
2023-05-08T06:43:11.671Z,76.50
2023-05-08T06:45:39.247Z,76.50
2023-05-08T06:48:07.032Z,76.30
2023-05-08T06:50:34.101Z,76.00
2023-05-08T06:53:01.171Z,75.20
2023-05-08T06:55:28.374Z,72.60
2023-05-08T06:57:58.514Z,72.40
2023-05-08T07:00:26.012Z,73.00
2023-05-08T07:02:53.223Z,72.50
2023-05-08T07:05:20.621Z,72.40
2023-05-08T07:07:47.851Z,72.80
2023-05-08T07:10:14.918Z,73.60
2023-05-08T07:16:24.271Z,73.70
2023-05-08T07:18:51.433Z,74.20
2023-05-08T07:21:20.419Z,74.20
2023-05-08T07:23:48.176Z,73.80
2023-05-08T07:26:15.305Z,72.90
2023-05-08T07:28:42.324Z,72.00
2023-05-08T07:31:09.570Z,72.00
2023-05-08T07:33:36.800Z,71.80
2023-05-08T07:36:04.355Z,72.00
2023-05-08T07:38:31.829Z,72.00
2023-05-08T07:41:01.572Z,71.70
2023-05-08T07:46:32.149Z,71.30
2023-05-08T07:48:59.260Z,71.20
2023-05-08T07:51:27.212Z,71.20
2023-05-08T07:53:55.356Z,71.30
2023-05-08T07:56:25.577Z,70.80
2023-05-08T07:58:52.737Z,70.60
2023-05-08T08:01:20.878Z,70.80
2023-05-08T08:03:48.193Z,70.20
2023-05-08T08:06:15.407Z,71.00
2023-05-08T08:08:42.424Z,70.40
2023-05-08T08:11:09.542Z,70.50
2023-05-08T08:17:21.336Z,70.90
2023-05-08T08:19:48.946Z,71.20
2023-05-08T08:22:16.262Z,71.30
2023-05-08T08:24:43.365Z,70.80
2023-05-08T08:31:13.868Z,70.80
2023-05-08T08:33:41.112Z,70.80
2023-05-08T08:36:14.011Z,71.00
2023-05-08T08:38:41.135Z,70.10
2023-05-08T08:41:08.685Z,69.40
2023-05-08T08:46:52.941Z,68.50
2023-05-08T08:49:47.289Z,68.70
2023-05-08T08:52:46.487Z,67.90
2023-05-08T08:55:16.794Z,67.40
2023-05-08T08:58:13.524Z,66.60
2023-05-08T09:00:40.736Z,66.70
2023-05-08T09:03:10.237Z,65.90
2023-05-08T09:05:38.556Z,66.00
2023-05-08T09:08:07.274Z,65.70
2023-05-08T09:10:35.220Z,66.30
2023-05-08T09:13:03.801Z,66.20
2023-05-08T09:15:34.632Z,66.80
2023-05-08T09:18:03.027Z,67.20
2023-05-08T09:20:30.360Z,67.20
2023-05-08T09:22:57.866Z,67.00
2023-05-08T09:25:25.165Z,67.10
2023-05-08T09:27:52.467Z,66.20
2023-05-08T09:30:19.925Z,66.50
2023-05-08T09:32:47.082Z,66.50
2023-05-08T09:35:14.508Z,66.20
2023-05-08T09:37:43.443Z,66.70
2023-05-08T09:40:21.575Z,67.10
2023-05-08T09:42:49.633Z,67.20
2023-05-08T09:45:33.005Z,67.60
2023-05-08T09:48:00.200Z,66.70
2023-05-08T09:50:28.027Z,66.60
2023-05-08T09:52:55.494Z,66.70
2023-05-08T09:55:22.704Z,67.00
2023-05-08T09:57:59.937Z,67.40
2023-05-08T10:00:28.647Z,66.90
2023-05-08T10:03:00.005Z,66.70
2023-05-08T10:05:30.217Z,66.00
2023-05-08T10:07:58.353Z,65.50
2023-05-08T10:10:30.497Z,65.50
2023-05-08T10:12:58.283Z,65.10
2023-05-08T10:15:29.766Z,64.00
2023-05-08T10:18:06.354Z,64.40
2023-05-08T10:20:36.175Z,63.80
2023-05-08T10:23:03.917Z,64.10
2023-05-08T10:25:33.733Z,64.40
2023-05-08T10:28:55.460Z,64.50
2023-05-08T10:31:22.803Z,64.30
2023-05-08T10:33:50.414Z,64.20
2023-05-08T10:36:17.502Z,63.10
2023-05-08T10:38:44.677Z,62.40
2023-05-08T10:41:12.075Z,62.20
2023-05-08T10:43:42.048Z,62.60
2023-05-08T10:46:30.327Z,62.90
2023-05-08T10:49:04.286Z,63.20
2023-05-08T10:52:10.716Z,62.70
2023-05-08T10:54:58.909Z,63.40
2023-05-08T10:57:25.995Z,63.50
2023-05-08T10:59:53.203Z,63.20
2023-05-08T11:02:29.162Z,62.40
2023-05-08T11:05:17.155Z,60.30
2023-05-08T11:08:00.125Z,61.00
2023-05-08T11:10:33.349Z,60.70
2023-05-08T11:16:57.650Z,60.40
2023-05-08T11:19:25.280Z,59.00
2023-05-08T11:22:11.182Z,57.70
2023-05-08T11:24:39.296Z,57.70
2023-05-08T11:27:06.358Z,57.90
2023-05-08T11:33:20.505Z,58.10
2023-05-08T11:35:57.759Z,57.90
2023-05-08T11:38:30.173Z,58.40
2023-05-08T11:41:05.269Z,58.30
2023-05-08T11:43:38.440Z,58.60
2023-05-08T11:46:16.196Z,59.10
2023-05-08T11:48:43.661Z,59.20
2023-05-08T11:51:11.014Z,59.70
2023-05-08T11:53:38.218Z,59.60
2023-05-08T11:56:05.640Z,59.80
2023-05-08T11:58:36.227Z,59.90
2023-05-08T12:01:03.479Z,59.90
2023-05-08T12:03:30.967Z,59.50
2023-05-08T12:05:59.039Z,59.90
2023-05-08T12:08:27.123Z,60.30
2023-05-08T12:10:55.880Z,60.40
2023-05-08T12:20:21.587Z,60.10
2023-05-08T12:22:53.153Z,60.60
2023-05-08T12:25:21.033Z,60.70
2023-05-08T12:27:48.616Z,60.60
2023-05-08T12:30:24.541Z,60.80
2023-05-08T12:32:52.044Z,61.00
2023-05-08T12:35:19.728Z,61.30
2023-05-08T12:37:47.776Z,61.70
2023-05-08T12:40:35.871Z,61.20
2023-05-08T12:43:03.871Z,60.60
2023-05-08T12:45:35.095Z,60.10
2023-05-08T12:48:04.097Z,59.50
2023-05-08T12:50:35.567Z,59.70
2023-05-08T12:53:04.756Z,59.80
2023-05-08T12:55:33.709Z,59.60
2023-05-08T12:58:10.565Z,59.60
2023-05-08T13:00:46.462Z,60.00
2023-05-08T13:03:15.295Z,60.30
2023-05-08T13:05:44.133Z,60.50
2023-05-08T13:08:11.561Z,59.90
2023-05-08T13:10:55.482Z,59.70
2023-05-08T13:13:28.257Z,59.90
2023-05-08T13:15:55.759Z,60.00
2023-05-08T13:18:26.781Z,59.80
2023-05-08T13:20:54.880Z,59.40
2023-05-08T13:23:22.282Z,59.20
2023-05-08T13:25:49.601Z,59.20
2023-05-08T13:28:16.780Z,60.20
2023-05-08T13:30:44.077Z,60.40
2023-05-08T13:33:11.154Z,60.40
2023-05-08T13:35:38.486Z,60.40
2023-05-08T13:38:06.372Z,59.70
2023-05-08T13:40:33.712Z,59.50
2023-05-08T13:43:01.046Z,59.30
2023-05-08T13:45:28.757Z,59.30
2023-05-08T13:47:56.898Z,59.20
2023-05-08T13:50:24.324Z,59.60
2023-05-08T13:52:54.491Z,59.50
2023-05-08T13:55:27.948Z,59.70
2023-05-08T13:57:55.146Z,59.70
2023-05-08T14:00:22.276Z,59.70
2023-05-08T14:02:52.266Z,60.20
2023-05-08T14:05:20.415Z,60.10
2023-05-08T14:07:47.572Z,60.30
2023-05-08T14:10:17.221Z,60.50
2023-05-08T14:12:44.583Z,60.60
2023-05-08T14:15:12.243Z,60.40
2023-05-08T14:17:42.730Z,60.70
2023-05-08T14:20:11.881Z,60.70
2023-05-08T14:22:39.894Z,60.70
2023-05-08T14:25:07.972Z,60.80
2023-05-08T14:27:35.130Z,60.80
2023-05-08T14:30:05.471Z,60.70
2023-05-08T14:32:35.195Z,60.70
2023-05-08T14:35:02.370Z,60.40
2023-05-08T14:37:29.532Z,60.60
2023-05-08T14:39:58.219Z,60.60
2023-05-08T14:42:27.703Z,60.30
2023-05-08T14:44:56.176Z,59.40
2023-05-08T14:47:23.758Z,60.00
2023-05-08T14:49:50.916Z,60.10
2023-05-08T14:52:18.104Z,60.30
2023-05-08T14:54:45.507Z,59.80
2023-05-08T14:57:13.456Z,60.40
2023-05-08T15:06:20.033Z,60.80
2023-05-08T15:08:47.869Z,60.90
2023-05-08T15:11:15.312Z,59.90
2023-05-08T15:13:42.729Z,59.90
2023-05-08T15:16:10.168Z,59.60
2023-05-08T15:18:39.065Z,59.50
2023-05-08T15:21:13.722Z,59.40
2023-05-08T15:23:41.171Z,58.80
2023-05-08T15:26:08.918Z,58.90
2023-05-08T15:28:37.884Z,58.80
2023-05-08T15:31:05.221Z,58.20
2023-05-08T15:33:32.415Z,57.60
2023-05-08T15:35:59.602Z,57.50
2023-05-08T15:38:27.997Z,57.50
2023-05-08T15:40:56.669Z,57.90
2023-05-08T15:43:24.005Z,57.50
2023-05-08T15:45:54.597Z,57.60
2023-05-08T15:48:22.474Z,57.00
2023-05-08T15:50:49.541Z,57.30
2023-05-08T15:53:16.699Z,57.40
2023-05-08T15:55:44.159Z,56.80
2023-05-08T15:58:14.157Z,56.10
2023-05-08T16:00:45.296Z,56.20
2023-05-08T16:03:12.959Z,56.30
2023-05-08T16:05:40.222Z,56.10
2023-05-08T16:08:08.690Z,56.00
2023-05-08T16:10:35.918Z,55.80
2023-05-08T16:13:04.141Z,56.30
2023-05-08T16:15:31.461Z,56.50
2023-05-08T16:18:02.137Z,56.80
2023-05-08T16:20:29.454Z,56.70
2023-05-08T16:22:56.922Z,57.00
2023-05-08T16:25:24.229Z,57.30
2023-05-08T16:27:51.530Z,57.60
2023-05-08T16:30:19.125Z,57.30
2023-05-08T16:32:46.600Z,57.20
2023-05-08T16:35:14.677Z,57.00
2023-05-08T16:37:42.663Z,56.80
2023-05-08T16:40:10.141Z,56.40
2023-05-08T16:42:37.934Z,56.10
2023-05-08T16:45:07.322Z,55.90
2023-05-08T16:47:34.650Z,55.40
2023-05-08T16:50:02.206Z,55.40
2023-05-08T16:52:29.468Z,55.80
2023-05-08T16:54:56.703Z,56.40
2023-05-08T16:57:24.199Z,57.70
2023-05-08T16:59:52.074Z,57.60
2023-05-08T17:02:19.462Z,58.30
2023-05-08T17:04:49.703Z,59.10
2023-05-08T17:07:18.155Z,59.80
2023-05-08T17:09:45.492Z,60.60
2023-05-08T17:12:12.535Z,61.70
2023-05-08T17:14:40.732Z,62.60
2023-05-08T17:17:10.389Z,63.20
2023-05-08T17:19:37.551Z,63.20
2023-05-08T17:22:06.730Z,63.10
2023-05-08T17:24:35.748Z,63.20
2023-05-08T17:27:05.686Z,64.00
2023-05-08T17:29:33.104Z,64.30
2023-05-08T17:32:00.259Z,64.60
2023-05-08T17:34:27.454Z,65.00
2023-05-08T17:36:55.233Z,65.70
2023-05-08T17:39:25.541Z,65.90
2023-05-08T17:41:52.789Z,66.30
2023-05-08T17:44:19.881Z,66.50
2023-05-08T17:46:47.061Z,67.00
2023-05-08T17:49:15.855Z,67.40
2023-05-08T17:51:44.352Z,67.60
2023-05-08T17:54:11.646Z,67.70
2023-05-08T17:56:38.752Z,67.50
2023-05-08T17:59:05.857Z,67.50
2023-05-08T18:01:33.162Z,67.90
2023-05-08T18:04:00.619Z,68.20
2023-05-08T18:06:27.701Z,68.50
2023-05-08T18:08:54.997Z,68.50
2023-05-08T18:11:25.777Z,68.40
2023-05-08T18:13:53.635Z,68.60
2023-05-08T18:16:24.188Z,68.90
2023-05-08T18:18:52.042Z,69.00
2023-05-08T18:21:19.216Z,69.00
2023-05-08T18:23:46.393Z,69.10
2023-05-08T18:26:14.833Z,69.50
2023-05-08T18:28:42.078Z,69.40
2023-05-08T18:31:11.369Z,69.60
2023-05-08T18:33:38.495Z,69.50
2023-05-08T18:36:07.416Z,69.70
2023-05-08T18:38:35.218Z,69.80
2023-05-08T18:41:06.305Z,69.90
2023-05-08T18:43:33.982Z,70.60
2023-05-08T18:46:15.712Z,70.00
2023-05-08T18:48:42.867Z,70.20
2023-05-08T18:51:10.550Z,70.40
2023-05-08T18:53:38.597Z,70.30
2023-05-08T18:56:05.990Z,70.50
2023-05-08T18:58:34.250Z,70.50
2023-05-08T19:01:01.558Z,70.30
2023-05-08T19:03:29.126Z,70.30
2023-05-08T19:05:56.495Z,70.10
2023-05-08T19:08:23.914Z,70.30
2023-05-08T19:10:51.263Z,70.30
2023-05-08T19:13:18.435Z,70.50
2023-05-08T19:15:45.674Z,70.60
2023-05-08T19:18:14.286Z,70.80
2023-05-08T19:20:41.674Z,70.90
2023-05-08T19:23:08.830Z,70.70
2023-05-08T19:25:36.169Z,70.50
2023-05-08T19:28:04.271Z,70.50
2023-05-08T19:30:31.397Z,70.40
2023-05-08T19:33:04.841Z,70.40
2023-05-08T19:35:32.618Z,70.40
2023-05-08T19:37:59.869Z,70.20
2023-05-08T19:40:27.252Z,70.00
2023-05-08T19:42:54.522Z,70.00
2023-05-08T19:45:22.878Z,70.10
2023-05-08T19:47:50.098Z,70.40
2023-05-08T19:50:20.703Z,70.70
2023-05-08T19:52:48.939Z,71.20
2023-05-08T19:55:16.843Z,71.50
2023-05-08T19:57:44.023Z,71.40
2023-05-08T20:00:12.126Z,72.10
2023-05-08T20:02:39.611Z,71.40
2023-05-08T20:07:39.999Z,71.40
2023-05-08T20:10:07.724Z,71.60
2023-05-08T20:12:35.057Z,71.70
2023-05-08T20:15:02.572Z,71.40
2023-05-08T20:17:30.072Z,71.10
2023-05-08T20:19:58.309Z,71.30
2023-05-08T20:22:25.716Z,71.40
2023-05-08T20:24:55.657Z,71.30
2023-05-08T20:27:22.738Z,71.00
2023-05-08T20:29:50.110Z,71.10
2023-05-08T20:32:19.409Z,71.30
2023-05-08T20:34:46.682Z,71.30
2023-05-08T20:37:16.127Z,71.70
2023-05-08T20:39:45.356Z,71.90
2023-05-08T20:42:12.587Z,72.20
2023-05-08T20:44:39.927Z,72.90
2023-05-08T20:47:07.078Z,73.00
2023-05-08T20:49:35.413Z,72.70
2023-05-08T20:52:02.577Z,72.60
2023-05-08T20:54:30.567Z,72.40
2023-05-08T20:56:58.129Z,72.50
2023-05-08T20:59:26.679Z,72.40
2023-05-08T21:01:53.939Z,72.30
2023-05-08T21:04:21.076Z,72.00
2023-05-08T21:06:49.760Z,71.70
2023-05-08T21:09:18.301Z,72.00
2023-05-08T21:11:47.238Z,71.90
2023-05-08T21:14:16.019Z,71.70
2023-05-08T21:16:43.231Z,71.50
2023-05-08T21:19:30.360Z,71.30
2023-05-08T21:21:57.441Z,71.10
2023-05-08T21:24:25.850Z,71.30
2023-05-08T21:27:10.611Z,71.20
2023-05-08T21:29:38.836Z,71.70
2023-05-08T21:32:09.496Z,71.50
2023-05-08T21:34:37.436Z,71.50
2023-05-08T21:37:05.047Z,71.90
2023-05-08T21:39:32.635Z,72.00
2023-05-08T21:41:59.954Z,71.70
2023-05-08T21:44:26.992Z,71.80
2023-05-08T21:46:54.721Z,71.90
2023-05-08T21:49:22.424Z,71.90
2023-05-08T21:51:49.831Z,71.80
2023-05-08T21:54:16.930Z,71.70
2023-05-08T21:56:44.079Z,71.40
2023-05-08T21:59:11.457Z,71.40
2023-05-08T22:01:39.067Z,71.60
2023-05-08T22:04:07.867Z,71.90
2023-05-08T22:06:35.443Z,71.90
2023-05-08T22:09:02.772Z,72.20
2023-05-08T22:11:31.724Z,72.50
2023-05-08T22:13:58.965Z,72.60
2023-05-08T22:16:35.532Z,72.80
2023-05-08T22:19:02.951Z,73.00
2023-05-08T22:21:30.374Z,73.10
2023-05-08T22:23:57.710Z,73.20
2023-05-08T22:26:24.952Z,73.40
2023-05-08T22:28:52.401Z,73.50
2023-05-08T22:31:19.854Z,73.60
2023-05-08T22:33:47.099Z,73.40
2023-05-08T22:36:14.494Z,73.90
2023-05-08T22:38:41.909Z,74.50
2023-05-08T22:41:09.485Z,74.70
2023-05-08T22:43:37.190Z,74.30
2023-05-08T22:46:04.574Z,73.80
2023-05-08T22:48:31.834Z,73.30
2023-05-08T22:50:58.876Z,72.90
2023-05-08T22:53:26.015Z,72.80
2023-05-08T22:55:56.814Z,72.80
2023-05-08T22:58:27.608Z,72.80
2023-05-08T23:00:55.018Z,72.40
2023-05-08T23:03:22.297Z,72.40
2023-05-08T23:05:49.502Z,72.30
2023-05-08T23:08:16.696Z,72.10
2023-05-08T23:10:44.084Z,72.10
2023-05-08T23:13:11.169Z,72.20
2023-05-08T23:15:38.257Z,72.30
2023-05-08T23:18:05.851Z,72.20
2023-05-08T23:20:33.104Z,72.20
2023-05-08T23:23:00.186Z,72.30
2023-05-08T23:25:27.796Z,72.60
2023-05-08T23:27:58.010Z,72.90
2023-05-08T23:30:25.090Z,72.80
2023-05-08T23:32:52.823Z,72.70
2023-05-08T23:35:20.066Z,72.90
2023-05-08T23:37:47.804Z,72.80
2023-05-08T23:40:14.900Z,72.90
2023-05-08T23:42:42.202Z,73.10
2023-05-08T23:45:09.832Z,73.20
2023-05-08T23:47:37.717Z,73.30
2023-05-08T23:50:05.501Z,73.50
2023-05-08T23:52:32.507Z,73.60
2023-05-08T23:54:59.789Z,73.80
2023-05-08T23:57:28.578Z,73.80
2023-05-08T23:59:55.844Z,73.90
